Time;durP1;ratioP1;P1;durP2;ratioP2;P2;SDS_P1;SDS_P2;PMS_P1;PMS_P2;Temp;Humidity;BMP_temperature;BMP_pressure;BME280_temperature;BME280_humidity;BME280_pressure;Samples;Min_cycle;Max_cycle;Signal;HPM_P1;HPM_P2
2023/06/15 00:00:18;;;;;;;14.98;8.48;;;487.10;2380.80;;;;;;5072227;28;20029;-83
2023/06/15 00:02:44;;;;;;;10.63;8.90;;;487.00;2380.80;;;;;;5071826;28;20521;-83
2023/06/15 00:05:10;;;;;;;13.13;8.55;;;487.10;2380.80;;;;;;5071536;28;20036;-84
2023/06/15 00:07:36;;;;;;;13.55;9.75;;;487.10;2380.80;;;;;;5071870;28;20025;-83
2023/06/15 00:10:02;;;;;;;12.50;8.82;;;487.20;2380.80;;;;;;5071569;28;20377;-83
2023/06/15 00:12:28;;;;;;;11.43;8.77;;;487.20;2380.80;;;;;;5071769;28;20472;-84
2023/06/15 00:14:53;;;;;;;11.02;7.80;;;487.30;2380.80;;;;;;5056250;28;20032;-83
2023/06/15 00:17:21;;;;;;;12.90;9.23;;;487.10;2380.80;;;;;;5056077;28;20032;-83
2023/06/15 00:19:47;;;;;;;11.30;8.57;;;487.20;2380.80;;;;;;5071874;28;20041;-84
2023/06/15 00:22:15;;;;;;;10.40;7.43;;;487.20;2380.80;;;;;;5071515;28;20179;-84
2023/06/15 00:24:42;;;;;;;10.73;7.60;;;487.20;2380.80;;;;;;5071424;28;20032;-84
2023/06/15 00:27:09;;;;;;;11.00;8.30;;;487.20;2380.80;;;;;;5070386;28;20025;-84
2023/06/15 00:29:35;;;;;;;10.40;8.20;;;487.00;2380.80;;;;;;5070400;28;20051;-83
2023/06/15 00:32:01;;;;;;;13.88;9.85;;;487.00;2380.80;;;;;;5054477;28;20437;-83
2023/06/15 00:34:27;;;;;;;13.07;9.50;;;487.00;2380.80;;;;;;5055875;28;20029;-83
2023/06/15 00:36:52;;;;;;;12.15;8.65;;;486.80;2380.80;;;;;;5054579;28;20067;-84
2023/06/15 00:39:18;;;;;;;11.38;7.63;;;486.80;2380.80;;;;;;5054483;28;20025;-83
2023/06/15 00:41:44;;;;;;;10.88;7.47;;;486.90;2380.80;;;;;;5054323;28;20025;-84
2023/06/15 00:44:10;;;;;;;9.90;7.90;;;487.00;2380.80;;;;;;5054569;28;20032;-83
2023/06/15 00:46:38;;;;;;;14.18;8.82;;;486.80;2380.80;;;;;;5053963;28;20064;-84
2023/06/15 00:49:04;;;;;;;12.27;9.88;;;487.10;2380.80;;;;;;5054488;28;20120;-84
2023/06/15 00:51:30;;;;;;;13.93;9.82;;;487.00;2380.80;;;;;;5054455;28;20029;-84
2023/06/15 00:53:57;;;;;;;17.63;9.90;;;487.10;2380.80;;;;;;5053972;28;20365;-84
2023/06/15 00:56:23;;;;;;;11.63;9.52;;;487.10;2380.80;;;;;;5054206;28;20484;-83
2023/06/15 00:58:49;;;;;;;13.15;9.07;;;487.00;2380.80;;;;;;5054068;28;20123;-83
2023/06/15 01:01:15;;;;;;;11.90;8.73;;;487.00;2380.80;;;;;;5035969;28;20083;-84
2023/06/15 01:03:44;;;;;;;11.55;8.13;;;487.00;2380.80;;;;;;5050597;28;20029;-83
2023/06/15 01:06:14;;;;;;;10.85;8.75;;;487.00;2380.80;;;;;;5050081;28;20099;-83
2023/06/15 01:08:42;;;;;;;13.35;8.20;;;487.00;2380.80;;;;;;5050623;28;20072;-84
2023/06/15 01:11:08;;;;;;;13.30;9.13;;;487.00;2380.80;;;;;;5034131;28;20112;-83
2023/06/15 01:13:35;;;;;;;15.88;8.50;;;487.00;2380.80;;;;;;5050473;28;20034;-83
2023/06/15 01:16:06;;;;;;;17.23;8.98;;;487.00;2380.80;;;;;;5035457;28;20021;-83
2023/06/15 01:18:34;;;;;;;16.08;9.55;;;487.10;2380.80;;;;;;5050675;28;20022;-83
2023/06/15 01:21:04;;;;;;;10.48;8.27;;;487.10;2380.80;;;;;;5050169;28;20026;-83
2023/06/15 01:23:50;;;;;;;25.25;10.63;;;487.10;2380.80;;;;;;5034558;28;20064;-83
2023/06/15 01:26:18;;;;;;;14.60;10.70;;;487.10;2380.80;;;;;;5033667;28;20037;-83
2023/06/15 01:28:49;;;;;;;16.67;11.98;;;487.10;2380.80;;;;;;5034377;28;20076;-84
2023/06/15 01:31:17;;;;;;;15.82;10.88;;;487.10;2380.80;;;;;;5033285;28;20117;-84
2023/06/15 01:33:50;;;;;;;21.13;12.50;;;487.10;2380.80;;;;;;5034759;28;20021;-83
2023/06/15 01:36:17;;;;;;;24.00;14.77;;;487.10;2380.80;;;;;;5033507;28;20131;-83
2023/06/15 01:38:49;;;;;;;23.80;15.43;;;487.10;2380.80;;;;;;5032705;28;20029;-84
2023/06/15 01:41:18;;;;;;;24.67;14.77;;;487.00;2380.80;;;;;;5033334;28;20041;-84
2023/06/15 01:43:45;;;;;;;23.20;13.77;;;487.00;2380.80;;;;;;5033483;28;20041;-84
2023/06/15 01:46:11;;;;;;;26.40;15.32;;;487.00;2380.80;;;;;;5033350;28;20032;-84
2023/06/15 01:48:37;;;;;;;22.23;14.75;;;487.00;2380.80;;;;;;5033149;28;20026;-85
2023/06/15 01:51:04;;;;;;;25.52;14.88;;;487.00;2380.80;;;;;;5034661;28;20060;-83
2023/06/15 01:53:33;;;;;;;25.98;14.75;;;487.10;2380.80;;;;;;5033342;28;20034;-84
2023/06/15 01:56:00;;;;;;;24.00;14.35;;;487.10;2380.80;;;;;;5033221;28;20118;-84
2023/06/15 01:58:26;;;;;;;24.40;15.50;;;487.20;2380.80;;;;;;5034906;28;20028;-84
2023/06/15 02:00:52;;;;;;;22.50;16.83;;;487.20;2380.80;;;;;;5033236;28;20120;-85
2023/06/15 02:03:17;;;;;;;21.33;16.35;;;487.20;2380.80;;;;;;5032971;28;20124;-84
2023/06/15 02:05:43;;;;;;;26.27;15.52;;;487.20;2380.80;;;;;;5034090;28;20049;-83
2023/06/15 02:08:10;;;;;;;23.25;14.90;;;487.10;2380.80;;;;;;5033078;28;20075;-84
2023/06/15 02:10:37;;;;;;;22.48;13.98;;;487.20;2380.80;;;;;;5032983;28;20469;-84
2023/06/15 02:13:06;;;;;;;20.40;13.35;;;487.20;2380.80;;;;;;5034185;28;20091;-84
2023/06/15 02:15:31;;;;;;;21.90;13.93;;;487.20;2380.80;;;;;;5032917;28;20021;-84
2023/06/15 02:18:04;;;;;;;20.83;14.27;;;487.20;2380.80;;;;;;5032652;28;20025;-84
2023/06/15 02:20:31;;;;;;;18.77;11.65;;;487.10;2380.80;;;;;;5033022;28;20029;-83
2023/06/15 02:22:57;;;;;;;13.65;10.82;;;487.10;2380.80;;;;;;5033645;28;20120;-84
2023/06/15 02:25:29;;;;;;;17.05;9.80;;;487.00;2380.80;;;;;;5033023;28;20053;-84
2023/06/15 02:27:56;;;;;;;13.45;8.88;;;487.00;2380.80;;;;;;5034312;28;20030;-84
2023/06/15 02:30:26;;;;;;;17.35;10.70;;;487.00;2380.80;;;;;;5032206;28;20485;-83
2023/06/15 02:32:53;;;;;;;14.73;10.30;;;487.00;2380.80;;;;;;5031745;28;20048;-84
2023/06/15 02:35:19;;;;;;;14.52;10.05;;;486.90;2380.80;;;;;;5031682;28;20040;-84
2023/06/15 02:37:46;;;;;;;12.70;9.18;;;486.80;2380.80;;;;;;5031628;28;20123;-84
2023/06/15 02:40:12;;;;;;;15.68;9.20;;;486.80;2380.80;;;;;;5031725;28;20408;-84
2023/06/15 02:42:38;;;;;;;16.08;10.32;;;486.80;2380.80;;;;;;5031646;28;20029;-84
2023/06/15 02:45:06;;;;;;;14.57;9.00;;;486.80;2380.80;;;;;;5031842;28;20034;-84
2023/06/15 02:47:34;;;;;;;16.45;9.63;;;486.90;2380.80;;;;;;5031785;28;20397;-84
2023/06/15 02:50:00;;;;;;;15.13;10.05;;;486.90;2380.80;;;;;;5033103;28;20440;-84
2023/06/15 02:52:26;;;;;;;13.98;10.00;;;487.00;2380.80;;;;;;5035515;28;20044;-84
2023/06/15 02:54:53;;;;;;;13.77;9.15;;;487.00;2380.80;;;;;;5041117;28;20044;-84
2023/06/15 02:57:18;;;;;;;19.90;11.00;;;487.00;2380.80;;;;;;5058021;28;20006;-84
2023/06/15 02:59:44;;;;;;;13.68;9.68;;;487.00;2380.80;;;;;;5035325;28;20029;-83
2023/06/15 03:02:10;;;;;;;13.07;10.00;;;487.00;2380.80;;;;;;5036078;28;20050;-83
2023/06/15 03:04:44;;;;;;;15.32;9.98;;;487.00;2380.80;;;;;;5036584;28;20409;-84
2023/06/15 03:07:11;;;;;;;14.98;9.35;;;487.00;2380.80;;;;;;5036441;28;20082;-84
2023/06/15 03:09:37;;;;;;;15.50;9.20;;;461.70;2380.80;;;;;;5037294;28;20103;-84
2023/06/15 03:12:03;;;;;;;14.52;10.95;;;486.70;2380.80;;;;;;5037368;28;20018;-84
2023/06/15 03:14:28;;;;;;;13.93;10.43;;;486.80;2380.80;;;;;;5036002;28;20029;-84
2023/06/15 03:16:55;;;;;;;16.40;10.88;;;486.90;2380.80;;;;;;5037399;28;20044;-84
2023/06/15 03:19:21;;;;;;;18.42;10.98;;;487.00;2380.80;;;;;;5036011;28;20033;-84
2023/06/15 03:21:47;;;;;;;17.70;11.13;;;487.00;2380.80;;;;;;5037422;28;20037;-84
2023/06/15 03:24:13;;;;;;;19.20;11.70;;;487.00;2380.80;;;;;;5036142;28;20063;-83
2023/06/15 03:26:47;;;;;;;18.40;11.98;;;487.00;2380.80;;;;;;5036810;28;20365;-84
2023/06/15 03:29:13;;;;;;;21.45;13.32;;;487.10;2380.80;;;;;;5037319;28;20025;-84
2023/06/15 03:31:41;;;;;;;18.77;13.07;;;487.10;2380.80;;;;;;5036238;28;20025;-85
2023/06/15 03:34:10;;;;;;;20.45;13.68;;;487.10;2380.80;;;;;;5036076;28;20124;-85
2023/06/15 03:36:36;;;;;;;23.92;13.25;;;487.10;2380.80;;;;;;5036147;28;20047;-85
2023/06/15 03:39:06;;;;;;;20.63;12.07;;;487.10;2380.80;;;;;;5036222;28;20026;-85
2023/06/15 03:41:34;;;;;;;18.77;12.90;;;487.20;2380.80;;;;;;5036136;28;20041;-86
2023/06/15 03:44:00;;;;;;;17.98;13.35;;;487.10;2380.80;;;;;;5036028;28;20037;-86
2023/06/15 03:46:26;;;;;;;17.25;13.93;;;487.10;2380.80;;;;;;5037194;28;20032;-85
2023/06/15 03:48:51;;;;;;;17.55;12.68;;;487.10;2380.80;;;;;;5035867;28;20407;-86
2023/06/15 03:51:17;;;;;;;20.02;13.80;;;487.20;2380.80;;;;;;5035957;28;20025;-85
2023/06/15 03:53:43;;;;;;;16.27;12.93;;;487.20;2380.80;;;;;;5035899;28;20037;-84
2023/06/15 03:56:09;;;;;;;18.25;13.15;;;487.20;2380.80;;;;;;5035783;28;20029;-86
2023/06/15 03:58:35;;;;;;;18.00;12.30;;;487.30;2380.80;;;;;;5035812;28;20049;-85
2023/06/15 04:01:04;;;;;;;19.38;12.30;;;487.30;2380.80;;;;;;5036224;28;20466;-86
2023/06/15 04:03:34;;;;;;;15.23;10.68;;;487.30;2380.80;;;;;;5036929;28;20030;-85
2023/06/15 04:06:04;;;;;;;14.00;10.90;;;487.30;2380.80;;;;;;5035358;28;20042;-86
2023/06/15 04:08:31;;;;;;;12.65;9.40;;;487.30;2380.80;;;;;;5035485;28;20036;-86
2023/06/15 04:10:57;;;;;;;19.20;11.68;;;487.30;2380.80;;;;;;5035535;28;20033;-86
2023/06/15 04:13:23;;;;;;;18.13;14.32;;;487.30;2380.80;;;;;;5052397;28;20025;-85
2023/06/15 04:15:50;;;;;;;21.63;14.00;;;487.30;2380.80;;;;;;5035387;28;20017;-86
2023/06/15 04:18:16;;;;;;;21.30;12.77;;;487.30;2380.80;;;;;;5035445;28;20529;-85
2023/06/15 04:20:43;;;;;;;19.77;13.75;;;512.00;2380.80;;;;;;5035630;28;20025;-84
2023/06/15 04:23:10;;;;;;;17.02;12.68;;;512.00;2380.80;;;;;;5035102;28;20037;-84
2023/06/15 04:25:37;;;;;;;18.88;13.02;;;512.00;2380.80;;;;;;5035289;28;20523;-85
2023/06/15 04:28:05;;;;;;;18.75;12.82;;;512.10;2380.80;;;;;;5035209;28;20025;-85
2023/06/15 04:30:32;;;;;;;17.73;14.57;;;512.00;2380.80;;;;;;5035253;28;20029;-86
2023/06/15 04:32:59;;;;;;;19.45;14.00;;;487.20;2380.80;;;;;;5036214;28;20025;-85
2023/06/15 04:35:29;;;;;;;18.33;13.27;;;487.20;2380.80;;;;;;5034816;28;20083;-84
2023/06/15 04:37:58;;;;;;;18.10;12.75;;;487.10;2380.80;;;;;;5034833;28;20029;-84
2023/06/15 04:40:24;;;;;;;23.20;13.90;;;487.20;2380.80;;;;;;5034921;28;20029;-85
2023/06/15 04:42:50;;;;;;;21.38;14.13;;;487.20;2380.80;;;;;;5034647;28;20037;-85
2023/06/15 04:45:16;;;;;;;18.83;13.73;;;487.30;2380.80;;;;;;5040782;28;20074;-84
2023/06/15 04:47:42;;;;;;;20.85;13.15;;;512.00;2380.80;;;;;;5055723;28;20033;-85
2023/06/15 04:50:13;;;;;;;18.02;13.07;;;512.00;2380.80;;;;;;5054578;28;20422;-85
2023/06/15 04:52:41;;;;;;;17.98;13.77;;;512.00;2380.80;;;;;;5054672;28;20047;-85
2023/06/15 04:55:08;;;;;;;21.83;13.40;;;512.10;2380.80;;;;;;5054635;28;20033;-85
2023/06/15 04:57:34;;;;;;;21.92;12.60;;;487.30;2380.80;;;;;;5054310;28;20115;-85
2023/06/15 05:00:00;;;;;;;19.42;12.63;;;487.30;2380.80;;;;;;5054493;28;20111;-85
2023/06/15 05:02:26;;;;;;;17.23;12.75;;;512.00;2380.80;;;;;;5054555;28;20124;-85
2023/06/15 05:04:52;;;;;;;17.63;12.02;;;512.10;2380.80;;;;;;5053998;28;20112;-84
2023/06/15 05:07:18;;;;;;;20.10;13.60;;;512.10;2380.80;;;;;;5054284;28;20044;-85
2023/06/15 05:09:44;;;;;;;15.95;12.85;;;512.00;2380.80;;;;;;5055388;28;20052;-84
2023/06/15 05:12:10;;;;;;;17.27;13.35;;;512.00;2380.80;;;;;;5055355;28;20021;-85
2023/06/15 05:14:35;;;;;;;18.13;13.18;;;512.10;2380.80;;;;;;5054242;28;20115;-85
2023/06/15 05:17:04;;;;;;;18.88;12.52;;;512.10;2380.80;;;;;;5055490;28;20025;-84
2023/06/15 05:19:31;;;;;;;14.27;11.45;;;512.20;2380.80;;;;;;5055202;28;20028;-86
2023/06/15 05:22:01;;;;;;;14.45;11.50;;;512.20;2380.80;;;;;;5053841;28;20132;-85
2023/06/15 05:24:27;;;;;;;15.02;11.43;;;512.10;2380.80;;;;;;5054117;28;20487;-85
2023/06/15 05:26:53;;;;;;;15.68;12.02;;;512.10;2380.80;;;;;;5053825;28;20021;-84
2023/06/15 05:29:20;;;;;;;15.73;10.88;;;512.10;2380.80;;;;;;5053408;28;20025;-85
2023/06/15 05:31:46;;;;;;;15.77;10.82;;;512.00;2380.80;;;;;;5053569;28;20024;-85
2023/06/15 05:34:12;;;;;;;14.68;11.27;;;487.30;2380.80;;;;;;5054055;28;20033;-86
2023/06/15 05:36:38;;;;;;;17.42;10.93;;;512.10;2380.80;;;;;;5054118;28;20075;-86
2023/06/15 05:39:04;;;;;;;14.23;11.57;;;512.10;2380.80;;;;;;5053898;28;20119;-85
2023/06/15 05:41:30;;;;;;;12.90;10.45;;;512.00;2380.80;;;;;;5054052;28;20036;-85
2023/06/15 05:43:57;;;;;;;16.60;11.63;;;487.30;2380.80;;;;;;5053760;28;20033;-85
2023/06/15 05:46:23;;;;;;;15.48;11.05;;;512.00;2380.80;;;;;;5054726;28;20029;-85
2023/06/15 05:48:49;;;;;;;15.50;11.60;;;512.00;2380.80;;;;;;5053647;28;20025;-86
2023/06/15 05:51:15;;;;;;;15.02;12.15;;;512.10;2380.80;;;;;;5053898;28;20029;-84
2023/06/15 05:53:41;;;;;;;14.88;12.23;;;512.20;2380.80;;;;;;5053177;28;20461;-84
2023/06/15 05:56:06;;;;;;;16.95;12.38;;;512.10;2380.80;;;;;;5053583;28;20112;-83
2023/06/15 05:58:32;;;;;;;13.02;11.20;;;512.10;2380.80;;;;;;5053388;28;20025;-84
2023/06/15 06:00:58;;;;;;;17.08;12.63;;;512.20;2380.80;;;;;;5037019;28;20080;-84
2023/06/15 06:03:24;;;;;;;15.20;11.45;;;512.30;2380.80;;;;;;5033394;28;20033;-84
2023/06/15 06:05:50;;;;;;;14.45;11.57;;;512.30;2380.80;;;;;;5034501;28;20049;-83
2023/06/15 06:08:17;;;;;;;17.50;11.52;;;512.20;2380.80;;;;;;5032963;28;20056;-83
2023/06/15 06:10:42;;;;;;;14.05;11.25;;;512.20;2380.80;;;;;;5033111;28;20032;-84
2023/06/15 06:13:08;;;;;;;11.75;9.48;;;512.10;2380.80;;;;;;5033203;28;20112;-84
2023/06/15 06:15:34;;;;;;;17.30;10.02;;;512.00;2380.80;;;;;;5034289;28;20050;-83
2023/06/15 06:18:02;;;;;;;15.25;10.38;;;512.10;2380.80;;;;;;5032928;28;20052;-84
2023/06/15 06:20:28;;;;;;;13.32;9.13;;;512.20;2380.80;;;;;;5034312;28;20032;-84
2023/06/15 06:22:53;;;;;;;14.10;9.63;;;512.30;2380.80;;;;;;5032834;28;20029;-84
2023/06/15 06:25:19;;;;;;;12.88;9.38;;;512.40;2380.80;;;;;;5032398;28;20529;-83
2023/06/15 06:27:45;;;;;;;11.85;10.07;;;512.60;2380.80;;;;;;5032580;28;20033;-83
2023/06/15 06:30:11;;;;;;;14.43;9.40;;;512.60;2380.80;;;;;;5034541;28;20022;-83
2023/06/15 06:32:37;;;;;;;12.35;9.73;;;512.60;2380.80;;;;;;5033211;28;20163;-83
2023/06/15 06:35:03;;;;;;;12.23;9.63;;;512.70;2380.80;;;;;;5035452;28;20076;-84
2023/06/15 06:37:29;;;;;;;12.00;8.70;;;512.80;2380.80;;;;;;5072815;28;20033;-84
2023/06/15 06:39:55;;;;;;;9.90;8.85;;;512.80;2380.80;;;;;;5058936;28;20464;-84
2023/06/15 06:42:21;;;;;;;11.25;8.70;;;512.90;2380.80;;;;;;5052161;28;20041;-83
2023/06/15 06:44:46;;;;;;;10.80;8.95;;;512.90;2380.80;;;;;;5052514;28;20035;-83
2023/06/15 06:47:12;;;;;;;11.38;9.20;;;512.90;2380.80;;;;;;5052571;28;20021;-84
2023/06/15 06:49:38;;;;;;;12.85;8.93;;;512.70;2380.80;;;;;;5053510;28;20021;-84
2023/06/15 06:52:05;;;;;;;12.98;9.07;;;512.60;2380.80;;;;;;5054020;28;20029;-84
2023/06/15 06:54:30;;;;;;;14.32;9.70;;;512.60;2380.80;;;;;;5052332;28;20389;-85
2023/06/15 06:56:56;;;;;;;12.13;9.25;;;512.70;2380.80;;;;;;5052261;28;20040;-83
2023/06/15 06:59:22;;;;;;;11.13;9.60;;;512.80;2380.80;;;;;;5051780;28;20419;-83
2023/06/15 07:01:48;;;;;;;17.48;10.93;;;512.70;2380.80;;;;;;5069021;28;20021;-83
2023/06/15 07:04:13;;;;;;;13.82;10.20;;;512.90;2380.80;;;;;;5052244;28;20033;-84
2023/06/15 07:06:39;;;;;;;13.60;10.50;;;512.90;2380.80;;;;;;5051864;28;20090;-84
2023/06/15 07:09:05;;;;;;;11.40;9.65;;;512.90;2380.80;;;;;;5052516;28;20114;-84
2023/06/15 07:11:31;;;;;;;12.52;9.80;;;512.90;2380.80;;;;;;5053377;28;20190;-84
2023/06/15 07:13:58;;;;;;;13.82;10.40;;;512.70;2380.80;;;;;;5069008;28;20033;-83
2023/06/15 07:16:24;;;;;;;11.70;9.82;;;512.70;2380.80;;;;;;5052395;28;20480;-83
2023/06/15 07:18:50;;;;;;;12.90;9.73;;;512.90;2380.80;;;;;;5068597;28;20460;-83
2023/06/15 07:21:15;;;;;;;11.10;9.27;;;512.90;2380.80;;;;;;5068758;28;20031;-84
2023/06/15 07:23:41;;;;;;;11.25;9.13;;;512.90;2380.80;;;;;;5053166;28;20033;-83
2023/06/15 07:26:08;;;;;;;11.65;8.68;;;537.60;2406.40;;;;;;5068880;28;20543;-84
2023/06/15 07:28:33;;;;;;;9.68;8.10;;;512.90;2380.80;;;;;;5069100;28;20479;-83
2023/06/15 07:30:59;;;;;;;12.88;10.32;;;537.60;2406.40;;;;;;5068689;28;20029;-84
2023/06/15 07:33:25;;;;;;;10.82;8.98;;;537.70;2406.40;;;;;;5053407;28;20385;-85
2023/06/15 07:35:51;;;;;;;11.45;8.40;;;537.60;2406.40;;;;;;5053344;28;20469;-85
2023/06/15 07:38:17;;;;;;;9.95;8.18;;;537.70;2406.40;;;;;;5055822;28;20179;-85
2023/06/15 07:40:42;;;;;;;9.90;7.97;;;537.80;2406.40;;;;;;5055978;28;20520;-86
2023/06/15 07:43:09;;;;;;;8.90;7.60;;;537.80;2406.40;;;;;;5055926;28;20040;-85
2023/06/15 07:45:36;;;;;;;11.20;8.90;;;537.70;2406.40;;;;;;5055789;28;20481;-84
2023/06/15 07:48:03;;;;;;;10.10;9.05;;;537.60;2406.40;;;;;;5055321;28;20530;-83
2023/06/15 07:50:28;;;;;;;9.60;8.40;;;537.80;2406.40;;;;;;5055504;28;20385;-84
2023/06/15 07:52:55;;;;;;;9.93;8.68;;;537.70;2406.40;;;;;;5054617;28;20025;-84
2023/06/15 07:55:20;;;;;;;9.45;8.23;;;537.80;2406.40;;;;;;5056524;28;20033;-85
2023/06/15 07:57:46;;;;;;;11.88;8.80;;;537.80;2406.40;;;;;;5055628;28;20424;-84
2023/06/15 08:00:13;;;;;;;13.32;9.05;;;537.80;2406.40;;;;;;5054651;28;20035;-84
2023/06/15 08:02:38;;;;;;;11.57;8.73;;;537.70;2329.60;;;;;;5056510;28;20037;-85
2023/06/15 08:05:05;;;;;;;11.35;10.13;;;537.70;2406.40;;;;;;5056314;28;20025;-84
2023/06/15 08:07:31;;;;;;;12.40;10.43;;;512.90;2380.80;;;;;;5055803;28;20488;-85
2023/06/15 08:09:57;;;;;;;14.50;10.82;;;537.60;2406.40;;;;;;5056455;28;20048;-83
2023/06/15 08:12:23;;;;;;;17.20;10.82;;;537.60;2406.40;;;;;;5053824;28;20033;-82
2023/06/15 08:14:49;;;;;;;12.25;10.23;;;512.90;2380.80;;;;;;5054617;28;20108;-83
2023/06/15 08:17:15;;;;;;;12.57;10.13;;;512.90;2380.80;;;;;;5055889;28;20350;-83
2023/06/15 08:19:41;;;;;;;13.02;10.55;;;512.90;2380.80;;;;;;5055159;28;20358;-83
2023/06/15 08:22:07;;;;;;;11.88;10.52;;;537.60;2406.40;;;;;;5054640;28;20063;-87
2023/06/15 08:24:32;;;;;;;14.35;11.43;;;537.60;2406.40;;;;;;5054772;28;20461;-83
2023/06/15 08:27:00;;;;;;;15.23;13.52;;;512.90;2380.80;;;;;;5054250;28;20362;-82
2023/06/15 08:29:26;;;;;;;14.23;11.70;;;512.90;2380.80;;;;;;5055731;28;20025;-82
2023/06/15 08:31:52;;;;;;;13.85;10.35;;;537.60;2406.40;;;;;;5054318;28;20381;-83
2023/06/15 08:34:18;;;;;;;13.38;10.77;;;537.70;2406.40;;;;;;5054175;28;20052;-82
2023/06/15 08:36:44;;;;;;;16.38;12.50;;;537.70;2406.40;;;;;;5054571;28;20051;-79
2023/06/15 08:39:09;;;;;;;15.20;12.38;;;537.80;2406.40;;;;;;5054759;28;20524;-83
2023/06/15 08:41:39;;;;;;;14.13;12.00;;;537.90;2406.40;;;;;;5054531;28;20365;-81
2023/06/15 08:44:05;;;;;;;13.48;11.75;;;537.90;2406.40;;;;;;5053630;28;20037;-80
2023/06/15 08:46:31;;;;;;;16.45;11.90;;;537.90;2406.40;;;;;;5054533;28;20021;-81
2023/06/15 08:48:58;;;;;;;15.23;12.60;;;538.10;2406.40;;;;;;5053089;28;20078;-76
2023/06/15 08:51:25;;;;;;;15.10;11.93;;;538.00;2406.40;;;;;;5054212;28;20124;-79
2023/06/15 08:53:54;;;;;;;14.65;11.80;;;538.00;2406.40;;;;;;5055480;28;20373;-78
2023/06/15 08:56:21;;;;;;;19.42;13.35;;;538.00;2406.40;;;;;;5054961;28;20060;-78
2023/06/15 08:58:50;;;;;;;14.25;12.18;;;538.00;2406.40;;;;;;5053216;28;20029;-78
2023/06/15 09:01:21;;;;;;;14.70;12.50;;;538.00;2406.40;;;;;;5053355;28;20116;-78
2023/06/15 09:03:51;;;;;;;13.60;11.95;;;538.00;2406.40;;;;;;5053513;28;20512;-77
2023/06/15 09:06:19;;;;;;;15.80;13.35;;;538.10;2406.40;;;;;;5053128;28;20056;-78
2023/06/15 09:08:46;;;;;;;15.15;13.65;;;538.20;2406.40;;;;;;5053133;28;20033;-77
2023/06/15 09:11:12;;;;;;;13.70;12.27;;;538.30;2406.40;;;;;;5053511;28;20074;-76
2023/06/15 09:13:38;;;;;;;12.63;11.18;;;538.30;2406.40;;;;;;5054790;28;20090;-77
2023/06/15 09:16:09;;;;;;;11.15;9.98;;;538.40;2406.40;;;;;;5053080;28;20025;-76
2023/06/15 09:18:51;;;;;;;12.75;11.00;;;538.40;2406.40;;;;;;5053469;28;20036;-77
2023/06/15 09:21:21;;;;;;;13.30;10.70;;;538.50;2406.40;;;;;;5050624;28;20551;-78
2023/06/15 09:23:47;;;;;;;11.70;10.35;;;538.50;2406.40;;;;;;5052435;28;20037;-78
2023/06/15 09:26:23;;;;;;;10.98;8.07;;;538.50;2406.40;;;;;;5053920;28;20389;-77
2023/06/15 09:28:52;;;;;;;10.55;7.78;;;538.50;2406.40;;;;;;5052386;28;20021;-76
2023/06/15 09:31:32;;;;;;;8.73;7.82;;;538.50;2406.40;;;;;;5052658;28;20029;-77
2023/06/15 09:34:09;;;;;;;9.55;7.78;;;563.20;2432.00;;;;;;5052662;28;20067;-77
2023/06/15 09:36:48;;;;;;;9.70;8.25;;;563.20;2432.00;;;;;;5050308;28;20025;-79
2023/06/15 09:39:15;;;;;;;9.85;7.45;;;563.30;2432.00;;;;;;5033010;28;20116;-77
2023/06/15 09:41:56;;;;;;;7.65;6.55;;;563.40;2432.00;;;;;;5041822;28;20036;-78
2023/06/15 09:44:23;;;;;;;7.10;6.28;;;563.50;2432.00;;;;;;5052761;28;20064;-77
2023/06/15 09:46:51;;;;;;;7.15;6.45;;;563.20;2432.00;;;;;;5052653;28;20025;-79
2023/06/15 09:49:25;;;;;;;7.88;5.95;;;563.60;2432.00;;;;;;5053320;28;20029;-78
2023/06/15 09:51:52;;;;;;;8.25;6.35;;;563.60;2432.00;;;;;;5052361;28;20025;-77
2023/06/15 09:54:22;;;;;;;7.45;6.65;;;563.50;2432.00;;;;;;5052704;28;20047;-78
2023/06/15 09:56:50;;;;;;;7.90;6.40;;;563.50;2432.00;;;;;;5049481;28;20055;-76
2023/06/15 09:59:16;;;;;;;8.20;6.00;;;563.50;2432.00;;;;;;5065662;28;20112;-78
2023/06/15 10:01:45;;;;;;;8.23;7.18;;;563.50;2432.00;;;;;;5052178;28;20035;-79
2023/06/15 10:04:12;;;;;;;10.13;6.45;;;563.60;2432.00;;;;;;5052455;28;20413;-77
2023/06/15 10:06:41;;;;;;;7.30;6.60;;;563.50;2432.00;;;;;;5051190;28;20044;-79
2023/06/15 10:09:09;;;;;;;8.02;6.72;;;563.40;2432.00;;;;;;5052411;28;20028;-77
2023/06/15 10:11:41;;;;;;;7.97;6.97;;;563.40;2432.00;;;;;;5051879;28;20040;-79
2023/06/15 10:14:18;;;;;;;7.65;6.80;;;563.40;2432.00;;;;;;5053675;28;20082;-77
2023/06/15 10:16:48;;;;;;;10.07;8.40;;;563.50;2432.00;;;;;;5053545;28;20029;-76
2023/06/15 10:19:15;;;;;;;8.20;7.32;;;563.60;2432.00;;;;;;5071919;28;20028;-76
2023/06/15 10:21:44;;;;;;;7.50;6.50;;;563.60;2432.00;;;;;;5060678;28;20403;-77
2023/06/15 10:24:16;;;;;;;11.68;9.77;;;563.60;2432.00;;;;;;5052162;28;20036;-79
2023/06/15 10:26:43;;;;;;;8.25;7.25;;;563.60;2432.00;;;;;;5035812;28;20033;-79
2023/06/15 10:29:41;;;;;;;9.88;7.20;;;563.60;2432.00;;;;;;5051421;28;20469;-77
2023/06/15 10:32:28;;;;;;;10.60;8.32;;;563.60;2432.00;;;;;;5068453;28;20039;-78
2023/06/15 10:35:21;;;;;;;10.05;6.47;;;563.60;2432.00;;;;;;5051527;28;20033;-76
2023/06/15 10:38:31;;;;;;;7.43;6.35;;;563.60;2432.00;;;;;;5067366;28;20029;-78
2023/06/15 10:40:58;;;;;;;11.82;6.93;;;563.60;2432.00;;;;;;5038979;28;20431;-78
2023/06/15 10:43:28;;;;;;;9.68;8.52;;;563.60;2432.00;;;;;;5052144;28;20033;-77
2023/06/15 10:45:55;;;;;;;7.55;6.63;;;563.60;2432.00;;;;;;5052309;28;20025;-80
2023/06/15 10:48:30;;;;;;;10.98;9.07;;;563.60;2432.00;;;;;;5053221;28;20116;-78
2023/06/15 10:51:04;;;;;;;10.50;9.40;;;563.60;2432.00;;;;;;5068973;28;20061;-77
2023/06/15 10:53:45;;;;;;;10.60;7.57;;;563.70;2432.00;;;;;;5068791;28;20473;-81
2023/06/15 10:56:20;;;;;;;9.02;7.88;;;563.80;2432.00;;;;;;5068902;28;20017;-77
2023/06/15 10:59:04;;;;;;;8.88;7.50;;;563.80;2432.00;;;;;;5068688;28;20415;-78
2023/06/15 11:01:33;;;;;;;8.82;6.85;;;563.70;2432.00;;;;;;5068440;28;20460;-80
2023/06/15 11:04:20;;;;;;;8.45;7.43;;;563.70;2432.00;;;;;;5068554;28;20494;-78
2023/06/15 11:06:56;;;;;;;8.85;7.68;;;563.90;2432.00;;;;;;5044095;28;20392;-75
2023/06/15 11:09:24;;;;;;;8.52;6.60;;;564.00;2432.00;;;;;;5051122;28;20128;-76
2023/06/15 11:11:50;;;;;;;7.30;6.55;;;564.00;2432.00;;;;;;5054390;28;20116;-75
2023/06/15 11:14:20;;;;;;;8.95;7.25;;;564.10;2432.00;;;;;;5055529;28;20116;-76
2023/06/15 11:17:04;;;;;;;8.52;7.63;;;588.80;2432.00;;;;;;5054302;28;20025;-76
2023/06/15 11:19:29;;;;;;;8.07;7.13;;;588.80;2432.00;;;;;;5055382;28;20453;-75
2023/06/15 11:22:01;;;;;;;8.25;7.45;;;588.80;2432.00;;;;;;5055120;28;20060;-76
2023/06/15 11:24:33;;;;;;;8.73;7.82;;;588.90;2432.00;;;;;;5056894;28;20043;-76
2023/06/15 11:27:03;;;;;;;9.15;7.00;;;588.90;2432.00;;;;;;5055549;28;20408;-77
2023/06/15 11:29:33;;;;;;;9.32;7.47;;;589.00;2432.00;;;;;;5055220;28;20029;-76
2023/06/15 11:32:04;;;;;;;7.78;6.97;;;589.40;2432.00;;;;;;5055438;28;20032;-77
2023/06/15 11:34:35;;;;;;;9.35;7.88;;;589.30;2432.00;;;;;;5055287;28;20032;-78
2023/06/15 11:37:01;;;;;;;9.05;6.72;;;589.50;2432.00;;;;;;5055130;28;20071;-78
2023/06/15 11:39:31;;;;;;;8.02;7.22;;;589.60;2432.00;;;;;;5055344;28;20029;-79
2023/06/15 11:41:58;;;;;;;11.73;6.60;;;589.70;2432.00;;;;;;5054957;28;20428;-76
2023/06/15 11:44:26;;;;;;;7.80;6.70;;;589.70;2432.00;;;;;;5056010;28;20039;-78
2023/06/15 11:47:00;;;;;;;7.93;6.68;;;589.70;2432.00;;;;;;5055242;28;20055;-80
2023/06/15 11:49:33;;;;;;;8.52;7.10;;;589.60;2432.00;;;;;;5055263;28;20025;-78
2023/06/15 11:51:59;;;;;;;11.23;7.88;;;589.60;2432.00;;;;;;5054671;28;20029;-81
2023/06/15 11:54:26;;;;;;;9.02;6.63;;;589.60;2432.00;;;;;;5056239;28;20048;-80
2023/06/15 11:56:52;;;;;;;9.00;7.32;;;589.70;2432.00;;;;;;5056389;28;20509;-78
2023/06/15 11:59:20;;;;;;;9.45;8.38;;;589.70;2432.00;;;;;;5054901;28;20029;-77
2023/06/15 12:01:46;;;;;;;9.05;8.15;;;589.70;2432.00;;;;;;5054940;28;20447;-80
2023/06/15 12:04:13;;;;;;;11.90;9.85;;;614.40;2432.00;;;;;;5054563;28;20072;-79
2023/06/15 12:07:01;;;;;;;11.15;8.68;;;614.50;2432.00;;;;;;5054396;28;20056;-78
2023/06/15 12:09:27;;;;;;;9.48;7.55;;;614.40;2432.00;;;;;;5054786;28;20033;-78